sensor_id;sensor_type;location;lat;lon;timestamp;pressure;altitude;pressure_sealevel;temperature;humidity
29379;BME280;16362;47.202;15.258;2022-08-26T00:01:29;96045.41;;;16.61;100.00
29379;BME280;16362;47.202;15.258;2022-08-26T00:03:56;96042.09;;;16.59;100.00
29379;BME280;16362;47.202;15.258;2022-08-26T00:06:24;96042.53;;;16.56;100.00
29379;BME280;16362;47.202;15.258;2022-08-26T00:08:52;96037.34;;;16.54;100.00
29379;BME280;16362;47.202;15.258;2022-08-26T00:11:19;96042.53;;;16.56;100.00
29379;BME280;16362;47.202;15.258;2022-08-26T00:13:54;96038.41;;;16.53;100.00
29379;BME280;16362;47.202;15.258;2022-08-26T00:16:23;96036.97;;;16.50;100.00
29379;BME280;16362;47.202;15.258;2022-08-26T00:18:50;96039.47;;;16.52;100.00
29379;BME280;16362;47.202;15.258;2022-08-26T00:21:18;96040.50;;;16.51;100.00
29379;BME280;16362;47.202;15.258;2022-08-26T00:23:45;96036.59;;;16.47;100.00
29379;BME280;16362;47.202;15.258;2022-08-26T00:26:13;96037.84;;;16.44;100.00
29379;BME280;16362;47.202;15.258;2022-08-26T00:28:40;96035.97;;;16.45;100.00
29379;BME280;16362;47.202;15.258;2022-08-26T00:31:07;96027.06;;;16.44;100.00
29379;BME280;16362;47.202;15.258;2022-08-26T00:33:37;96032.69;;;16.43;100.00
29379;BME280;16362;47.202;15.258;2022-08-26T00:36:04;96035.78;;;16.40;100.00
29379;BME280;16362;47.202;15.258;2022-08-26T00:38:32;96034.34;;;16.37;100.00
29379;BME280;16362;47.202;15.258;2022-08-26T00:40:59;96032.72;;;16.36;100.00
29379;BME280;16362;47.202;15.258;2022-08-26T00:43:26;96028.16;;;16.37;100.00
29379;BME280;16362;47.202;15.258;2022-08-26T00:46:24;96025.44;;;16.37;100.00
29379;BME280;16362;47.202;15.258;2022-08-26T00:49:00;96029.19;;;16.36;100.00
29379;BME280;16362;47.202;15.258;2022-08-26T00:51:29;96029.19;;;16.36;100.00
29379;BME280;16362;47.202;15.258;2022-08-26T00:54:01;96022.97;;;16.35;100.00
29379;BME280;16362;47.202;15.258;2022-08-26T00:56:35;96027.56;;;16.35;100.00
29379;BME280;16362;47.202;15.258;2022-08-26T00:59:08;96018.84;;;16.32;100.00
29379;BME280;16362;47.202;15.258;2022-08-26T01:01:38;96020.72;;;16.32;100.00
29379;BME280;16362;47.202;15.258;2022-08-26T01:04:08;96013.91;;;16.29;100.00
29379;BME280;16362;47.202;15.258;2022-08-26T01:06:35;96017.63;;;16.28;100.00
29379;BME280;16362;47.202;15.258;2022-08-26T01:09:03;96009.78;;;16.27;100.00
29379;BME280;16362;47.202;15.258;2022-08-26T01:11:30;96006.25;;;16.26;100.00
29379;BME280;16362;47.202;15.258;2022-08-26T01:13:59;96015.59;;;16.24;100.00
29379;BME280;16362;47.202;15.258;2022-08-26T01:16:28;96004.44;;;16.20;100.00
29379;BME280;16362;47.202;15.258;2022-08-26T01:19:00;96009.81;;;16.20;100.00
29379;BME280;16362;47.202;15.258;2022-08-26T01:21:55;96024.31;;;16.19;100.00
29379;BME280;16362;47.202;15.258;2022-08-26T01:24:24;96013.75;;;16.17;100.00
29379;BME280;16362;47.202;15.258;2022-08-26T01:26:56;96021.44;;;16.14;100.00
29379;BME280;16362;47.202;15.258;2022-08-26T01:29:24;96019.41;;;16.09;100.00
29379;BME280;16362;47.202;15.258;2022-08-26T01:31:53;96028.50;;;16.08;100.00
29379;BME280;16362;47.202;15.258;2022-08-26T01:34:33;96017.16;;;16.06;100.00
29379;BME280;16362;47.202;15.258;2022-08-26T01:37:10;96023.78;;;16.04;100.00
29379;BME280;16362;47.202;15.258;2022-08-26T01:39:42;96021.50;;;16.00;100.00
29379;BME280;16362;47.202;15.258;2022-08-26T01:42:11;96024.41;;;15.99;100.00
29379;BME280;16362;47.202;15.258;2022-08-26T01:44:48;96021.50;;;16.00;100.00
29379;BME280;16362;47.202;15.258;2022-08-26T01:47:19;96028.53;;;16.02;100.00
29379;BME280;16362;47.202;15.258;2022-08-26T01:49:49;96019.88;;;15.99;100.00
29379;BME280;16362;47.202;15.258;2022-08-26T01:52:23;96027.72;;;16.01;100.00
29379;BME280;16362;47.202;15.258;2022-08-26T01:54:54;96026.72;;;15.95;100.00
29379;BME280;16362;47.202;15.258;2022-08-26T01:57:24;96027.13;;;15.92;100.00
29379;BME280;16362;47.202;15.258;2022-08-26T01:59:54;96030.25;;;15.89;100.00
29379;BME280;16362;47.202;15.258;2022-08-26T02:02:23;96022.88;;;15.71;100.00
29379;BME280;16362;47.202;15.258;2022-08-26T02:04:59;96029.72;;;15.67;100.00
29379;BME280;16362;47.202;15.258;2022-08-26T02:07:28;96028.66;;;15.68;100.00
29379;BME280;16362;47.202;15.258;2022-08-26T02:09:58;96030.31;;;15.69;100.00
29379;BME280;16362;47.202;15.258;2022-08-26T02:12:25;96024.72;;;15.71;100.00
29379;BME280;16362;47.202;15.258;2022-08-26T02:14:54;96023.69;;;15.72;100.00
29379;BME280;16362;47.202;15.258;2022-08-26T02:18:01;96031.16;;;15.70;100.00
29379;BME280;16362;47.202;15.258;2022-08-26T02:20:22;96026.81;;;15.69;100.00
29379;BME280;16362;47.202;15.258;2022-08-26T02:22:52;96025.16;;;15.68;100.00
29379;BME280;16362;47.202;15.258;2022-08-26T02:25:24;96023.50;;;15.66;100.00
29379;BME280;16362;47.202;15.258;2022-08-26T02:27:52;96027.84;;;15.68;100.00
29379;BME280;16362;47.202;15.258;2022-08-26T02:30:25;96023.69;;;15.65;100.00
29379;BME280;16362;47.202;15.258;2022-08-26T02:32:53;96019.97;;;15.66;100.00
29379;BME280;16362;47.202;15.258;2022-08-26T02:35:22;96022.25;;;15.62;100.00
29379;BME280;16362;47.202;15.258;2022-08-26T02:37:50;96022.25;;;15.62;100.00
29379;BME280;16362;47.202;15.258;2022-08-26T02:40:23;96022.88;;;15.64;100.00
29379;BME280;16362;47.202;15.258;2022-08-26T02:42:50;96016.88;;;15.62;100.00
29379;BME280;16362;47.202;15.258;2022-08-26T02:45:21;96016.50;;;15.59;100.00
29379;BME280;16362;47.202;15.258;2022-08-26T02:47:50;96015.88;;;15.57;100.00
29379;BME280;16362;47.202;15.258;2022-08-26T02:50:18;96014.22;;;15.56;100.00
29379;BME280;16362;47.202;15.258;2022-08-26T02:52:45;96018.56;;;15.57;100.00
29379;BME280;16362;47.202;15.258;2022-08-26T02:55:14;96010.28;;;15.58;100.00
29379;BME280;16362;47.202;15.258;2022-08-26T02:57:41;96009.69;;;15.56;100.00
29379;BME280;16362;47.202;15.258;2022-08-26T03:00:09;96004.31;;;15.56;100.00
29379;BME280;16362;47.202;15.258;2022-08-26T03:02:36;96001.19;;;15.59;100.00
29379;BME280;16362;47.202;15.258;2022-08-26T03:05:03;96002.22;;;15.58;100.00
29379;BME280;16362;47.202;15.258;2022-08-26T03:07:30;95999.75;;;15.57;100.00
29379;BME280;16362;47.202;15.258;2022-08-26T03:09:57;96001.59;;;15.56;100.00
29379;BME280;16362;47.202;15.258;2022-08-26T03:12:24;96000.53;;;15.57;100.00
29379;BME280;16362;47.202;15.258;2022-08-26T03:14:51;96004.31;;;15.56;100.00
29379;BME280;16362;47.202;15.258;2022-08-26T03:17:18;96002.63;;;15.55;100.00
29379;BME280;16362;47.202;15.258;2022-08-26T03:19:45;96007.81;;;15.57;100.00
29379;BME280;16362;47.202;15.258;2022-08-26T03:22:17;96011.53;;;15.56;100.00
29379;BME280;16362;47.202;15.258;2022-08-26T03:24:45;96003.06;;;15.52;100.00
29379;BME280;16362;47.202;15.258;2022-08-26T03:27:12;96007.22;;;15.48;100.00
29379;BME280;16362;47.202;15.258;2022-08-26T03:29:40;96003.91;;;15.46;100.00
29379;BME280;16362;47.202;15.258;2022-08-26T03:32:26;96009.72;;;15.43;100.00
29379;BME280;16362;47.202;15.258;2022-08-26T03:34:54;96012.63;;;15.41;100.00
29379;BME280;16362;47.202;15.258;2022-08-26T03:37:22;96011.78;;;15.41;100.00
29379;BME280;16362;47.202;15.258;2022-08-26T03:39:48;96003.72;;;15.41;100.00
29379;BME280;16362;47.202;15.258;2022-08-26T03:42:16;96002.28;;;15.38;100.00
29379;BME280;16362;47.202;15.258;2022-08-26T03:44:47;96014.91;;;15.38;100.00
29379;BME280;16362;47.202;15.258;2022-08-26T03:47:13;96003.50;;;15.36;100.00
29379;BME280;16362;47.202;15.258;2022-08-26T03:49:41;96007.25;;;15.35;100.00
29379;BME280;16362;47.202;15.258;2022-08-26T03:52:08;96002.28;;;15.31;100.00
29379;BME280;16362;47.202;15.258;2022-08-26T03:54:36;96007.66;;;15.31;100.00
29379;BME280;16362;47.202;15.258;2022-08-26T03:57:03;96003.56;;;15.29;100.00
29379;BME280;16362;47.202;15.258;2022-08-26T03:59:30;96003.75;;;15.27;100.00
29379;BME280;16362;47.202;15.258;2022-08-26T04:01:57;96003.75;;;15.27;100.00
29379;BME280;16362;47.202;15.258;2022-08-26T04:04:24;96001.91;;;15.28;100.00
29379;BME280;16362;47.202;15.258;2022-08-26T04:06:55;95995.50;;;15.29;100.00
29379;BME280;16362;47.202;15.258;2022-08-26T04:09:23;95994.66;;;15.28;100.00
29379;BME280;16362;47.202;15.258;2022-08-26T04:11:50;95998.38;;;15.27;100.00
29379;BME280;16362;47.202;15.258;2022-08-26T04:14:22;95999.22;;;15.28;100.00
29379;BME280;16362;47.202;15.258;2022-08-26T04:16:50;95988.25;;;15.29;100.00
29379;BME280;16362;47.202;15.258;2022-08-26T04:19:18;95987.00;;;15.32;100.00
29379;BME280;16362;47.202;15.258;2022-08-26T04:21:47;95986.16;;;15.31;100.00
29379;BME280;16362;47.202;15.258;2022-08-26T04:24:15;95989.88;;;15.37;100.00
29379;BME280;16362;47.202;15.258;2022-08-26T04:26:43;95991.72;;;15.37;100.00
29379;BME280;16362;47.202;15.258;2022-08-26T04:29:13;95989.03;;;15.37;100.00
29379;BME280;16362;47.202;15.258;2022-08-26T04:31:40;95983.06;;;15.35;100.00
29379;BME280;16362;47.202;15.258;2022-08-26T04:34:08;95983.66;;;15.37;100.00
29379;BME280;16362;47.202;15.258;2022-08-26T04:36:36;95988.00;;;15.38;100.00
29379;BME280;16362;47.202;15.258;2022-08-26T04:39:03;95984.88;;;15.41;100.00
29379;BME280;16362;47.202;15.258;2022-08-26T04:41:31;95987.19;;;15.44;100.00
29379;BME280;16362;47.202;15.258;2022-08-26T04:43:58;95984.88;;;15.47;100.00
29379;BME280;16362;47.202;15.258;2022-08-26T04:46:27;95981.59;;;15.45;100.00
29379;BME280;16362;47.202;15.258;2022-08-26T04:48:54;95981.38;;;15.47;100.00
29379;BME280;16362;47.202;15.258;2022-08-26T04:51:21;95981.78;;;15.51;100.00
29379;BME280;16362;47.202;15.258;2022-08-26T04:53:55;95981.13;;;15.55;100.00
29379;BME280;16362;47.202;15.258;2022-08-26T04:56:25;95978.00;;;15.58;100.00
29379;BME280;16362;47.202;15.258;2022-08-26T04:58:52;95979.22;;;15.62;100.00
29379;BME280;16362;47.202;15.258;2022-08-26T05:01:19;95973.63;;;15.64;100.00
29379;BME280;16362;47.202;15.258;2022-08-26T05:03:47;95974.03;;;15.68;100.00
29379;BME280;16362;47.202;15.258;2022-08-26T05:06:15;95981.66;;;15.71;100.00
29379;BME280;16362;47.202;15.258;2022-08-26T05:08:44;95984.78;;;15.74;100.00
29379;BME280;16362;47.202;15.258;2022-08-26T05:11:11;95981.03;;;15.75;100.00
29379;BME280;16362;47.202;15.258;2022-08-26T05:13:39;95989.50;;;15.79;100.00
29379;BME280;16362;47.202;15.258;2022-08-26T05:16:08;95987.25;;;15.82;100.00
29379;BME280;16362;47.202;15.258;2022-08-26T05:18:37;95987.66;;;15.86;100.00
29379;BME280;16362;47.202;15.258;2022-08-26T05:21:05;95982.81;;;15.95;100.00
29379;BME280;16362;47.202;15.258;2022-08-26T05:23:34;95986.75;;;15.99;100.00
29379;BME280;16362;47.202;15.258;2022-08-26T05:26:06;95991.91;;;16.00;100.00
29379;BME280;16362;47.202;15.258;2022-08-26T05:28:35;95995.63;;;16.06;100.00
29379;BME280;16362;47.202;15.258;2022-08-26T05:31:10;95994.38;;;16.09;100.00
29379;BME280;16362;47.202;15.258;2022-08-26T05:33:40;95988.47;;;16.25;100.00
29379;BME280;16362;47.202;15.258;2022-08-26T05:36:09;95988.81;;;16.61;100.00
29379;BME280;16362;47.202;15.258;2022-08-26T05:38:38;95982.75;;;16.97;100.00
29379;BME280;16362;47.202;15.258;2022-08-26T05:41:13;95986.88;;;17.37;100.00
29379;BME280;16362;47.202;15.258;2022-08-26T05:43:42;95979.47;;;17.70;100.00
29379;BME280;16362;47.202;15.258;2022-08-26T05:46:09;95990.81;;;17.97;100.00
29379;BME280;16362;47.202;15.258;2022-08-26T05:48:36;95983.47;;;18.16;100.00
29379;BME280;16362;47.202;15.258;2022-08-26T05:51:06;95986.84;;;18.42;100.00
29379;BME280;16362;47.202;15.258;2022-08-26T05:53:34;95985.84;;;18.66;100.00
29379;BME280;16362;47.202;15.258;2022-08-26T05:56:04;95985.06;;;18.90;100.00
29379;BME280;16362;47.202;15.258;2022-08-26T05:58:32;95979.19;;;19.05;100.00
29379;BME280;16362;47.202;15.258;2022-08-26T06:01:05;95984.84;;;19.15;100.00
29379;BME280;16362;47.202;15.258;2022-08-26T06:03:36;95973.97;;;19.39;100.00
29379;BME280;16362;47.202;15.258;2022-08-26T06:06:13;95981.16;;;19.45;100.00
29379;BME280;16362;47.202;15.258;2022-08-26T06:08:45;95976.31;;;19.59;100.00
29379;BME280;16362;47.202;15.258;2022-08-26T06:11:15;95982.38;;;19.78;100.00
29379;BME280;16362;47.202;15.258;2022-08-26T06:13:45;95983.53;;;19.94;100.00
29379;BME280;16362;47.202;15.258;2022-08-26T06:16:15;95974.31;;;20.07;100.00
29379;BME280;16362;47.202;15.258;2022-08-26T06:18:44;95984.63;;;20.22;100.00
29379;BME280;16362;47.202;15.258;2022-08-26T06:21:23;95981.63;;;20.35;100.00
29379;BME280;16362;47.202;15.258;2022-08-26T06:23:52;95985.25;;;20.58;100.00
29379;BME280;16362;47.202;15.258;2022-08-26T06:26:38;95973.31;;;20.71;100.00
29379;BME280;16362;47.202;15.258;2022-08-26T06:29:08;95973.94;;;20.78;100.00
29379;BME280;16362;47.202;15.258;2022-08-26T06:31:35;95964.56;;;21.02;100.00
29379;BME280;16362;47.202;15.258;2022-08-26T06:34:05;95967.16;;;21.31;100.00
29379;BME280;16362;47.202;15.258;2022-08-26T06:36:36;95974.28;;;21.55;100.00
29379;BME280;16362;47.202;15.258;2022-08-26T06:39:06;95969.50;;;21.62;98.21
29379;BME280;16362;47.202;15.258;2022-08-26T06:41:36;95968.59;;;21.78;97.79
29379;BME280;16362;47.202;15.258;2022-08-26T06:44:08;95970.47;;;22.00;96.51
29379;BME280;16362;47.202;15.258;2022-08-26T06:46:36;95971.53;;;22.21;95.75
29379;BME280;16362;47.202;15.258;2022-08-26T06:49:03;95972.84;;;22.41;95.24
29379;BME280;16362;47.202;15.258;2022-08-26T06:51:34;95969.47;;;22.56;92.85
29379;BME280;16362;47.202;15.258;2022-08-26T06:54:03;95969.28;;;22.67;92.96
29379;BME280;16362;47.202;15.258;2022-08-26T06:56:34;95968.69;;;22.60;92.69
29379;BME280;16362;47.202;15.258;2022-08-26T06:59:02;95971.56;;;22.81;92.34
29379;BME280;16362;47.202;15.258;2022-08-26T07:01:35;95970.06;;;22.95;93.23
29379;BME280;16362;47.202;15.258;2022-08-26T07:04:05;95967.66;;;22.99;91.71
29379;BME280;16362;47.202;15.258;2022-08-26T07:06:38;95967.50;;;22.83;89.91
29379;BME280;16362;47.202;15.258;2022-08-26T07:09:08;95961.94;;;23.00;89.16
29379;BME280;16362;47.202;15.258;2022-08-26T07:11:36;95959.34;;;23.16;89.44
29379;BME280;16362;47.202;15.258;2022-08-26T07:14:04;95960.84;;;23.39;89.91
29379;BME280;16362;47.202;15.258;2022-08-26T07:16:32;95957.47;;;23.69;89.43
29379;BME280;16362;47.202;15.258;2022-08-26T07:19:01;95954.03;;;23.90;88.35
29379;BME280;16362;47.202;15.258;2022-08-26T07:21:37;95946.19;;;24.09;86.80
29379;BME280;16362;47.202;15.258;2022-08-26T07:24:07;95940.41;;;24.00;86.66
29379;BME280;16362;47.202;15.258;2022-08-26T07:26:36;95941.78;;;24.02;87.38
29379;BME280;16362;47.202;15.258;2022-08-26T07:29:03;95939.25;;;23.85;88.81
29379;BME280;16362;47.202;15.258;2022-08-26T07:31:31;95935.03;;;24.15;84.70
29379;BME280;16362;47.202;15.258;2022-08-26T07:34:05;95944.03;;;24.21;84.79
29379;BME280;16362;47.202;15.258;2022-08-26T07:36:33;95935.00;;;24.20;85.02
29379;BME280;16362;47.202;15.258;2022-08-26T07:39:00;95934.25;;;24.30;84.29
29379;BME280;16362;47.202;15.258;2022-08-26T07:41:27;95936.97;;;24.51;87.05
29379;BME280;16362;47.202;15.258;2022-08-26T07:43:55;95925.00;;;24.62;85.25
29379;BME280;16362;47.202;15.258;2022-08-26T07:46:22;95932.13;;;24.74;83.62
29379;BME280;16362;47.202;15.258;2022-08-26T07:48:56;95931.56;;;24.77;83.99
29379;BME280;16362;47.202;15.258;2022-08-26T07:51:24;95926.06;;;24.92;83.24
29379;BME280;16362;47.202;15.258;2022-08-26T07:53:52;95931.56;;;24.82;85.56
29379;BME280;16362;47.202;15.258;2022-08-26T07:56:20;95918.41;;;25.25;82.94
29379;BME280;16362;47.202;15.258;2022-08-26T07:58:49;95926.56;;;25.46;81.40
29379;BME280;16362;47.202;15.258;2022-08-26T08:01:18;95933.38;;;25.48;82.34
29379;BME280;16362;47.202;15.258;2022-08-26T08:03:46;95928.94;;;25.68;81.76
29379;BME280;16362;47.202;15.258;2022-08-26T08:06:20;95926.88;;;26.04;80.33
29379;BME280;16362;47.202;15.258;2022-08-26T08:08:47;95932.19;;;26.30;78.64
29379;BME280;16362;47.202;15.258;2022-08-26T08:11:20;95922.31;;;26.34;73.58
29379;BME280;16362;47.202;15.258;2022-08-26T08:13:48;95926.66;;;26.41;71.02
29379;BME280;16362;47.202;15.258;2022-08-26T08:16:25;95931.50;;;26.54;76.06
29379;BME280;16362;47.202;15.258;2022-08-26T08:18:57;95921.50;;;26.73;71.65
29379;BME280;16362;47.202;15.258;2022-08-26T08:21:26;95917.97;;;26.73;68.12
29379;BME280;16362;47.202;15.258;2022-08-26T08:23:55;95912.63;;;26.87;68.67
29379;BME280;16362;47.202;15.258;2022-08-26T08:26:23;95909.09;;;26.86;71.76
29379;BME280;16362;47.202;15.258;2022-08-26T08:28:55;95909.94;;;26.82;68.82
29379;BME280;16362;47.202;15.258;2022-08-26T08:31:25;95913.59;;;27.01;70.01
29379;BME280;16362;47.202;15.258;2022-08-26T08:34:13;95900.69;;;27.36;70.85
29379;BME280;16362;47.202;15.258;2022-08-26T08:36:40;95909.31;;;27.19;71.48
29379;BME280;16362;47.202;15.258;2022-08-26T08:39:08;95905.19;;;27.22;69.42
29379;BME280;16362;47.202;15.258;2022-08-26T08:41:45;95912.47;;;27.08;65.67
29379;BME280;16362;47.202;15.258;2022-08-26T08:44:19;95900.94;;;27.11;66.26
29379;BME280;16362;47.202;15.258;2022-08-26T08:46:51;95899.75;;;27.17;66.97
29379;BME280;16362;47.202;15.258;2022-08-26T08:49:21;95901.94;;;26.91;67.77
29379;BME280;16362;47.202;15.258;2022-08-26T08:54:21;95904.28;;;27.02;67.18
29379;BME280;16362;47.202;15.258;2022-08-26T08:56:51;95893.16;;;27.18;66.15
29379;BME280;16362;47.202;15.258;2022-08-26T08:59:24;95892.53;;;27.26;64.51
29379;BME280;16362;47.202;15.258;2022-08-26T09:07:43;95887.66;;;27.23;62.08
29379;BME280;16362;47.202;15.258;2022-08-26T09:12:59;95894.84;;;27.14;62.95
29379;BME280;16362;47.202;15.258;2022-08-26T09:15:54;95885.66;;;27.29;62.58
29379;BME280;16362;47.202;15.258;2022-08-26T09:21:10;95900.94;;;27.35;61.20
29379;BME280;16362;47.202;15.258;2022-08-26T09:23:39;95885.50;;;27.20;61.22
29379;BME280;16362;47.202;15.258;2022-08-26T09:29:03;95881.13;;;27.19;61.74
29379;BME280;16362;47.202;15.258;2022-08-26T09:31:37;95889.38;;;27.14;63.26
29379;BME280;16362;47.202;15.258;2022-08-26T09:34:12;95874.13;;;27.32;62.87
29379;BME280;16362;47.202;15.258;2022-08-26T09:36:51;95874.66;;;27.58;60.50
29379;BME280;16362;47.202;15.258;2022-08-26T09:42:09;95865.78;;;27.66;59.97
29379;BME280;16362;47.202;15.258;2022-08-26T09:44:59;95877.53;;;27.48;62.14
29379;BME280;16362;47.202;15.258;2022-08-26T09:47:33;95879.56;;;27.61;61.42
29379;BME280;16362;47.202;15.258;2022-08-26T09:52:37;95872.72;;;27.59;59.60
29379;BME280;16362;47.202;15.258;2022-08-26T09:55:21;95879.09;;;27.54;60.07
29379;BME280;16362;47.202;15.258;2022-08-26T09:57:52;95867.13;;;27.69;59.31
29379;BME280;16362;47.202;15.258;2022-08-26T10:00:32;95873.22;;;27.85;59.38
29379;BME280;16362;47.202;15.258;2022-08-26T10:03:06;95863.59;;;27.87;60.64
29379;BME280;16362;47.202;15.258;2022-08-26T10:05:57;95865.34;;;28.02;59.37
29379;BME280;16362;47.202;15.258;2022-08-26T10:08:35;95859.84;;;28.21;59.12
29379;BME280;16362;47.202;15.258;2022-08-26T10:11:06;95861.38;;;28.28;57.20
29379;BME280;16362;47.202;15.258;2022-08-26T10:13:40;95854.00;;;28.28;59.78
29379;BME280;16362;47.202;15.258;2022-08-26T10:16:20;95855.19;;;28.55;56.06
29379;BME280;16362;47.202;15.258;2022-08-26T10:18:59;95856.94;;;28.32;56.95
29379;BME280;16362;47.202;15.258;2022-08-26T10:21:37;95852.03;;;28.48;57.18
29379;BME280;16362;47.202;15.258;2022-08-26T10:24:09;95850.81;;;28.73;56.01
29379;BME280;16362;47.202;15.258;2022-08-26T10:27:06;95846.66;;;28.76;56.93
29379;BME280;16362;47.202;15.258;2022-08-26T10:29:45;95852.09;;;28.43;55.91
29379;BME280;16362;47.202;15.258;2022-08-26T10:32:36;95843.41;;;28.54;56.70
29379;BME280;16362;47.202;15.258;2022-08-26T10:35:10;95840.72;;;28.68;57.09
29379;BME280;16362;47.202;15.258;2022-08-26T10:37:41;95841.38;;;28.60;56.70
29379;BME280;16362;47.202;15.258;2022-08-26T10:40:13;95843.94;;;28.89;58.77
29379;BME280;16362;47.202;15.258;2022-08-26T10:42:50;95829.88;;;28.91;54.39
29379;BME280;16362;47.202;15.258;2022-08-26T10:45:22;95830.50;;;28.88;55.12
29379;BME280;16362;47.202;15.258;2022-08-26T10:48:07;95834.97;;;28.84;55.53
29379;BME280;16362;47.202;15.258;2022-08-26T10:50:39;95827.53;;;28.98;55.98
29379;BME280;16362;47.202;15.258;2022-08-26T10:53:14;95823.38;;;29.01;54.69
29379;BME280;16362;47.202;15.258;2022-08-26T10:55:53;95829.25;;;28.80;53.31
29379;BME280;16362;47.202;15.258;2022-08-26T11:01:23;95835.06;;;28.79;54.07
29379;BME280;16362;47.202;15.258;2022-08-26T11:06:38;95815.06;;;28.92;51.24
29379;BME280;16362;47.202;15.258;2022-08-26T11:09:07;95816.06;;;28.96;52.06
29379;BME280;16362;47.202;15.258;2022-08-26T11:16:56;95811.72;;;28.62;53.40
29379;BME280;16362;47.202;15.258;2022-08-26T11:22:36;95811.94;;;28.66;53.97
29379;BME280;16362;47.202;15.258;2022-08-26T11:25:20;95805.06;;;28.82;54.25
29379;BME280;16362;47.202;15.258;2022-08-26T11:27:56;95816.56;;;28.84;53.66
29379;BME280;16362;47.202;15.258;2022-08-26T11:30:33;95795.28;;;28.76;53.78
29379;BME280;16362;47.202;15.258;2022-08-26T11:33:01;95802.63;;;28.81;53.49
29379;BME280;16362;47.202;15.258;2022-08-26T11:38:26;95792.19;;;28.50;53.76
29379;BME280;16362;47.202;15.258;2022-08-26T11:40:56;95793.91;;;28.46;54.95
29379;BME280;16362;47.202;15.258;2022-08-26T11:43:29;95797.22;;;28.43;55.37
29379;BME280;16362;47.202;15.258;2022-08-26T11:46:09;95786.13;;;28.34;55.55
29379;BME280;16362;47.202;15.258;2022-08-26T11:48:45;95785.03;;;28.35;58.54
29379;BME280;16362;47.202;15.258;2022-08-26T11:51:21;95783.00;;;28.40;60.14
29379;BME280;16362;47.202;15.258;2022-08-26T11:53:49;95787.63;;;28.26;56.77
29379;BME280;16362;47.202;15.258;2022-08-26T11:56:24;95785.19;;;28.25;56.83
29379;BME280;16362;47.202;15.258;2022-08-26T11:58:59;95781.72;;;28.00;59.76
29379;BME280;16362;47.202;15.258;2022-08-26T12:01:38;95786.69;;;27.60;53.77
29379;BME280;16362;47.202;15.258;2022-08-26T12:04:11;95787.59;;;27.55;59.71
29379;BME280;16362;47.202;15.258;2022-08-26T12:06:48;95781.44;;;27.63;57.56
29379;BME280;16362;47.202;15.258;2022-08-26T12:09:23;95786.38;;;27.61;56.79
29379;BME280;16362;47.202;15.258;2022-08-26T12:11:52;95775.34;;;27.23;57.23
29379;BME280;16362;47.202;15.258;2022-08-26T12:14:24;95770.59;;;27.10;58.61
29379;BME280;16362;47.202;15.258;2022-08-26T12:16:53;95768.66;;;27.10;58.53
29379;BME280;16362;47.202;15.258;2022-08-26T12:19:27;95771.94;;;27.12;59.10
29379;BME280;16362;47.202;15.258;2022-08-26T12:22:12;95769.06;;;27.22;58.37
29379;BME280;16362;47.202;15.258;2022-08-26T12:24:51;95761.06;;;27.26;57.23
29379;BME280;16362;47.202;15.258;2022-08-26T12:27:24;95769.13;;;27.42;56.62
29379;BME280;16362;47.202;15.258;2022-08-26T12:32:28;95758.53;;;27.54;54.78
29379;BME280;16362;47.202;15.258;2022-08-26T12:34:57;95749.94;;;27.61;52.90
29379;BME280;16362;47.202;15.258;2022-08-26T12:37:31;95746.75;;;27.53;56.01
29379;BME280;16362;47.202;15.258;2022-08-26T12:42:50;95755.13;;;27.62;53.13
29379;BME280;16362;47.202;15.258;2022-08-26T12:45:27;95753.38;;;27.52;55.17
29379;BME280;16362;47.202;15.258;2022-08-26T12:47:59;95744.38;;;27.47;57.17
29379;BME280;16362;47.202;15.258;2022-08-26T12:50:30;95747.50;;;27.40;54.90
29379;BME280;16362;47.202;15.258;2022-08-26T12:53:04;95738.38;;;27.64;52.28
29379;BME280;16362;47.202;15.258;2022-08-26T12:58:29;95729.28;;;27.49;55.48
29379;BME280;16362;47.202;15.258;2022-08-26T13:08:50;95720.69;;;27.56;55.42
29379;BME280;16362;47.202;15.258;2022-08-26T13:11:19;95719.34;;;27.53;55.18
29379;BME280;16362;47.202;15.258;2022-08-26T13:13:49;95716.53;;;27.59;53.48
29379;BME280;16362;47.202;15.258;2022-08-26T13:16:20;95718.63;;;27.48;56.20
29379;BME280;16362;47.202;15.258;2022-08-26T13:18:50;95708.97;;;27.31;55.72
29379;BME280;16362;47.202;15.258;2022-08-26T13:21:19;95715.25;;;27.32;55.75
29379;BME280;16362;47.202;15.258;2022-08-26T13:23:47;95711.50;;;27.47;55.52
29379;BME280;16362;47.202;15.258;2022-08-26T13:26:15;95710.47;;;27.43;57.65
29379;BME280;16362;47.202;15.258;2022-08-26T13:28:42;95699.00;;;27.41;58.21
29379;BME280;16362;47.202;15.258;2022-08-26T13:31:13;95700.75;;;27.31;59.73
29379;BME280;16362;47.202;15.258;2022-08-26T13:33:40;95700.03;;;27.45;55.72
29379;BME280;16362;47.202;15.258;2022-08-26T13:36:10;95697.41;;;27.34;57.00
29379;BME280;16362;47.202;15.258;2022-08-26T13:38:37;95687.59;;;27.33;57.40
29379;BME280;16362;47.202;15.258;2022-08-26T13:41:04;95684.91;;;27.28;57.19
29379;BME280;16362;47.202;15.258;2022-08-26T13:43:31;95687.13;;;27.26;60.63
29379;BME280;16362;47.202;15.258;2022-08-26T13:45:58;95682.00;;;27.19;57.62
29379;BME280;16362;47.202;15.258;2022-08-26T13:48:26;95683.94;;;27.19;57.73
29379;BME280;16362;47.202;15.258;2022-08-26T13:50:53;95676.63;;;27.33;55.69
29379;BME280;16362;47.202;15.258;2022-08-26T13:53:20;95676.22;;;27.21;57.07
29379;BME280;16362;47.202;15.258;2022-08-26T13:55:47;95672.97;;;27.19;57.92
29379;BME280;16362;47.202;15.258;2022-08-26T13:58:14;95674.25;;;27.08;57.22
29379;BME280;16362;47.202;15.258;2022-08-26T14:00:40;95675.72;;;27.00;55.61